createdAt,value
2023-04-28T05:32:47.137Z,4.50
2023-04-28T05:35:49.425Z,5.60
2023-04-28T05:38:51.445Z,5.38
2023-04-28T05:41:54.808Z,9.68
2023-04-28T05:44:56.574Z,9.45
2023-04-28T05:47:58.551Z,12.55
2023-04-28T05:51:00.455Z,19.75
2023-04-28T05:54:03.252Z,8.80
2023-04-28T05:57:05.472Z,22.13
2023-04-28T06:00:08.437Z,12.38
2023-04-28T06:03:11.517Z,12.75
2023-04-28T06:06:13.699Z,8.23
2023-04-28T06:09:16.053Z,16.35
2023-04-28T06:12:18.130Z,13.00
2023-04-28T06:49:08.449Z,6.97
2023-04-28T06:52:10.666Z,3.50
2023-04-28T06:55:16.154Z,5.68
2023-04-28T06:58:18.071Z,4.82
2023-04-28T07:01:20.023Z,6.68
2023-04-28T07:04:22.711Z,4.55
2023-04-28T07:07:24.960Z,3.50
2023-04-28T07:10:26.824Z,4.65
2023-04-28T07:13:28.874Z,4.20
2023-04-28T07:16:31.661Z,4.90
2023-04-28T07:19:36.664Z,4.28
2023-04-28T07:22:41.458Z,4.15
2023-04-28T07:25:56.904Z,12.52
2023-04-28T07:32:07.295Z,16.67
2023-04-28T07:35:09.668Z,16.60
2023-04-28T07:38:11.654Z,22.42
2023-04-28T07:41:13.796Z,34.58
2023-04-28T07:44:15.857Z,29.98
2023-04-28T07:47:18.112Z,24.58
2023-04-28T07:50:20.399Z,25.27
2023-04-28T07:53:22.881Z,24.13
2023-04-28T07:56:25.968Z,30.27
2023-04-28T07:59:28.122Z,25.17
2023-04-28T08:02:29.987Z,31.25
2023-04-28T08:05:32.693Z,18.65
2023-04-28T08:08:35.237Z,17.90
2023-04-28T08:11:37.284Z,20.10
2023-04-28T08:14:39.078Z,19.20
2023-04-28T08:17:41.377Z,12.38
2023-04-28T08:20:45.710Z,9.68
2023-04-28T08:23:47.838Z,12.77
2023-04-28T08:26:49.868Z,15.57
2023-04-28T08:29:53.523Z,18.88
2023-04-28T08:32:57.159Z,19.77
2023-04-28T08:35:59.910Z,11.85
2023-04-28T08:39:04.078Z,11.82
2023-04-28T08:42:07.339Z,14.27
2023-04-28T08:45:14.563Z,9.13
2023-04-28T08:48:21.379Z,13.23
2023-04-28T08:51:34.403Z,9.40
2023-04-28T08:54:38.353Z,8.13
2023-04-28T08:57:52.107Z,8.35
2023-04-28T09:00:54.559Z,9.40
2023-04-28T09:03:57.300Z,10.50
2023-04-28T09:06:59.527Z,8.40
2023-04-28T09:10:22.271Z,5.32
2023-04-28T09:13:27.643Z,3.42
2023-04-28T09:16:42.824Z,9.68
2023-04-28T09:19:44.727Z,7.22
2023-04-28T09:22:46.488Z,9.45
2023-04-28T09:26:06.390Z,8.82
2023-04-28T09:29:14.775Z,9.95
2023-04-28T09:32:18.970Z,13.13
2023-04-28T09:35:40.113Z,9.03
2023-04-28T09:38:46.331Z,9.55
2023-04-28T09:41:59.973Z,9.23
2023-04-28T09:45:07.393Z,8.35
2023-04-28T09:48:12.482Z,7.10
2023-04-28T09:51:31.718Z,5.18
2023-04-28T09:54:36.720Z,5.25
2023-04-28T09:57:41.031Z,7.95
2023-04-28T10:00:46.084Z,4.53
2023-04-28T10:06:56.663Z,1.77
2023-04-28T10:10:03.821Z,3.10
2023-04-28T10:13:09.881Z,3.40
2023-04-28T10:16:15.959Z,3.15
2023-04-28T10:19:20.712Z,2.00
2023-04-28T10:22:42.285Z,1.30
2023-04-28T10:25:50.816Z,2.00
2023-04-28T10:28:53.995Z,1.20
2023-04-28T10:32:16.678Z,1.08
2023-04-28T10:35:28.801Z,2.90
2023-04-28T10:38:30.756Z,1.05
2023-04-28T10:41:33.511Z,1.20
2023-04-28T10:44:35.648Z,1.45
2023-04-28T10:48:06.468Z,0.95
2023-04-28T10:51:12.808Z,1.67
2023-04-28T10:54:15.630Z,0.98
2023-04-28T10:57:18.874Z,1.85
2023-04-28T11:00:30.837Z,1.80
2023-04-28T11:03:49.353Z,1.45
2023-04-28T11:07:11.783Z,0.82
2023-04-28T11:10:13.475Z,1.10
2023-04-28T11:13:33.924Z,1.58
2023-04-28T11:16:48.471Z,0.88
2023-04-28T11:19:51.306Z,1.00
2023-04-28T11:22:53.203Z,1.20
2023-04-28T11:25:55.795Z,2.22
2023-04-28T11:28:58.526Z,4.30
2023-04-28T11:32:00.568Z,1.48
2023-04-28T11:35:04.237Z,1.80
2023-04-28T11:38:05.927Z,1.90
2023-04-28T11:41:08.114Z,4.00
2023-04-28T11:44:17.909Z,1.73
2023-04-28T11:47:32.532Z,3.38
2023-04-28T11:50:38.458Z,4.47
2023-04-28T11:53:44.847Z,0.95
2023-04-28T11:56:46.978Z,1.13
2023-04-28T11:59:49.746Z,2.30
2023-04-28T12:02:52.255Z,0.90
2023-04-28T12:05:54.128Z,0.80
2023-04-28T12:08:56.036Z,4.15
2023-04-28T12:12:00.149Z,0.98
2023-04-28T12:15:07.313Z,1.20
2023-04-28T12:18:12.711Z,1.00
2023-04-28T12:21:21.872Z,1.10
2023-04-28T12:24:26.093Z,1.10
2023-04-28T12:27:29.151Z,3.33
2023-04-28T12:30:33.293Z,2.38
2023-04-28T12:33:39.472Z,3.50
2023-04-28T12:36:41.333Z,3.00
2023-04-28T12:39:43.424Z,2.30
2023-04-28T12:42:45.529Z,2.20
2023-04-28T12:45:47.734Z,2.90
2023-04-28T12:48:50.060Z,1.65
2023-04-28T12:51:51.882Z,4.05
2023-04-28T12:54:53.499Z,1.13
2023-04-28T12:57:55.357Z,0.90
2023-04-28T13:00:57.013Z,2.08
2023-04-28T13:04:00.319Z,3.13
2023-04-28T13:07:02.527Z,1.33
2023-04-28T13:10:04.485Z,2.47
2023-04-28T13:13:06.134Z,1.10
2023-04-28T13:16:08.118Z,1.17
2023-04-28T13:19:13.592Z,1.95
2023-04-28T13:22:15.770Z,1.92
2023-04-28T13:25:17.438Z,1.48
2023-04-28T13:28:19.221Z,1.27
2023-04-28T13:31:21.116Z,1.42
2023-04-28T13:34:22.965Z,1.15
2023-04-28T13:37:24.624Z,0.82
2023-04-28T13:40:26.354Z,3.17
2023-04-28T13:43:28.105Z,0.70
2023-04-28T13:46:30.543Z,1.85
2023-04-28T13:49:32.192Z,1.30
2023-04-28T13:52:33.840Z,0.73
2023-04-28T13:55:35.537Z,4.05
2023-04-28T13:58:37.550Z,0.88
2023-04-28T14:01:39.207Z,1.85
2023-04-28T14:04:41.183Z,1.20
2023-04-28T14:07:43.768Z,2.22
2023-04-28T14:10:45.685Z,2.75
2023-04-28T14:13:47.301Z,1.52
2023-04-28T14:16:49.058Z,0.70
2023-04-28T14:19:50.793Z,3.63
2023-04-28T14:22:52.567Z,0.68
2023-04-28T14:25:58.064Z,1.48
2023-04-28T14:29:00.554Z,1.42
2023-04-28T14:32:02.190Z,6.28
2023-04-28T14:35:06.087Z,4.97
2023-04-28T14:38:07.761Z,0.98
2023-04-28T14:41:09.491Z,2.40
2023-04-28T14:44:11.244Z,0.85
2023-04-28T14:47:13.213Z,2.28
2023-04-28T14:50:14.863Z,0.60
2023-04-28T14:53:16.909Z,0.75
2023-04-28T14:56:20.369Z,5.95
2023-04-28T14:59:22.959Z,1.90
2023-04-28T15:02:29.406Z,1.30
2023-04-28T15:05:31.974Z,6.00
2023-04-28T15:08:33.650Z,1.55
2023-04-28T15:11:35.486Z,0.50
2023-04-28T15:14:37.119Z,0.63
2023-04-28T15:17:39.125Z,0.38
2023-04-28T15:20:40.924Z,0.35
2023-04-28T15:23:42.579Z,0.38
2023-04-28T15:26:44.365Z,0.40
2023-04-28T15:29:46.099Z,1.85
2023-04-28T15:32:49.504Z,4.55
2023-04-28T15:35:51.262Z,0.88
2023-04-28T15:38:53.033Z,0.30
2023-04-28T15:41:56.071Z,0.52
2023-04-28T15:44:57.839Z,0.57
2023-04-28T15:47:59.739Z,0.70
2023-04-28T15:51:01.662Z,0.57
2023-04-28T15:54:03.484Z,0.98
2023-04-28T15:57:05.881Z,1.58
2023-04-28T16:00:09.036Z,3.28
